L78 weather

Jacumba Airport
Jacumba, California, United States

Public forecast

Using degrees Fahrenheit for public forecast. Weather courtesy of forecast.io.

Closest aviation weather report (METAR) to Jacumba Airport

Closest report is El Centro NAF Airport (Vraciu Field), 28.0 nm (51.9 km) ENE. Retrieved 2020/02/24 21:56 UTC (36 minutes ago):

KNJK 242156Z 00000KT 10SM FEW300 27/01 A3008 RMK AO2 SLP200 T02670006

Closest aviation forecast (TAF) to Jacumba Airport

Forecast is more than 12 hours old.

Closest forecast is El Centro NAF Airport (Vraciu Field), 28.0 nm (51.9 km) ENE. Retrieved 2016/08/04 23:15 UTC (4 years ago):

TAF KNJK 032300Z 0323/0423 VRB06KT 9999 FEW080 FEW280 TEMPO 0323/0405 14010KT FM040600 VRB06KT FEW280 QNH2968INS AUTOMATED SENSOR METWATCH 0406 TIL 0413 TX41/0323Z TN28/0412Z FS30081